Bei Facebook empfehlenBei Twitter postenGoogle plusPinterest

Das Wetter im Erzgebirge am 22.04.2017

Wetter und Klima am 22.04.2017 Holzhau im Erzgebirge (630m ü.NN)
Letzte gemessene Temperatur und Uhrzeit der Messung23:45:00 Uhr1.90 °C
Temperatur (Maximum / Höchstwert) und Uhrzeit der Messung01:15:00 Uhr6.90 °C
Temperatur (Minimum / Tiefstwert) und Uhrzeit der Messung08:45:001.30 °C
Errechneter Absolutwert der Temperaturschwankungen zwischen Tmin und Tmax des Tages5.60 K
Errechnete Tagesmitteltemperatur4.21042 °C
Gesamt - Niederschlag des Tages (in flüssiger Form)4.66 Liter / m²
Luftdruck (Maximum / Höchstwert) und Zeitpunkt der Messung00:30:00 Uhr1016.20 hPa
Luftdruck (Minimum / Tiefstwert) und Zeitpunkt der Messung20:00:00 Uhr1012.70 hPa
Errechneter Absolutwert der Luftdruckschwankungen des Tages3.50 hPa
Höchste gemessene Windgeschwindigkeit und Uhrzeit der Messung18:00:00 Uhr16.92 km/h
Errechnete Windhäufigkeit in Relation zu den Messwerten des Tages46.87500 %
Niedrigste Windkühle (Windchill) und Zeitpunkt der Messung09:30:00 Uhr-2.30 °C
Taupunkt (Maximum / Höchstwert) und Uhrzeit der Messung06:15:00 Uhr3.70 °C
Taupunkt (Minimum / Tiefstwert) und Uhrzeit der Messung19:45:00-1.90 °C
Anzahl der automatisch eingelesenen Messwerte 96

Detaillierte Wetter- und Klima- Messwerte für den 22.04.2017 in Holzhau im Erzgebirge (630m ü.NN)
ZeitTemperaturLuftdruckRel. LuftfeuchteWindWindrichtungWindchillTaupunktNiederschlag l/m²
23:45:001.90 °C1013.50 hPa81.00 %-1.00 °C4.66
23:30:001.90 °C1013.50 hPa81.00 %-1.00 °C4.66
23:15:002.00 °C1013.50 hPa80.00 %6.84 km/hNW0.00 °C-1.10 °C4.66
23:00:002.10 °C1013.40 hPa80.00 %-1.00 °C4.66
22:45:002.10 °C1013.60 hPa79.00 %-1.20 °C4.66
22:30:002.10 °C1013.40 hPa79.00 %1.08 km/hWNW2.10 °C-1.20 °C4.66
22:15:002.20 °C1013.60 hPa78.00 %-1.20 °C4.66
22:00:002.30 °C1013.40 hPa76.00 %-1.50 °C4.66
21:45:002.40 °C1013.30 hPa76.00 %5.40 km/hNW1.00 °C-1.40 °C4.66
21:30:002.40 °C1013.20 hPa75.00 %-1.60 °C4.66
21:15:002.40 °C1013.20 hPa75.00 %-1.60 °C4.66
21:00:002.50 °C1013.10 hPa74.00 %-1.70 °C4.66
20:45:002.60 °C1013.10 hPa73.00 %-1.70 °C4.66
20:30:002.80 °C1012.90 hPa73.00 %5.76 km/hWNW1.30 °C-1.50 °C4.66
20:15:002.90 °C1012.90 hPa72.00 %-1.60 °C4.66
20:00:003.10 °C1012.70 hPa70.00 %-1.80 °C4.66
19:45:003.40 °C1012.90 hPa68.00 %2.52 km/hNNW3.40 °C-1.90 °C4.66
19:30:003.90 °C1012.70 hPa68.00 %1.80 km/hNNW3.90 °C-1.50 °C4.66
19:15:004.20 °C1013.00 hPa67.00 %-1.40 °C4.66
19:00:004.50 °C1012.90 hPa66.00 %-1.30 °C4.66
18:45:004.70 °C1013.10 hPa66.00 %-1.10 °C4.66
18:30:004.90 °C1012.90 hPa65.00 %11.88 km/hWSW2.20 °C-1.10 °C4.66
18:15:004.90 °C1013.00 hPa64.00 %6.12 km/hWNW3.60 °C-1.30 °C4.66
18:00:005.30 °C1013.00 hPa64.00 %16.92 km/hW1.80 °C-0.90 °C4.66
17:45:005.10 °C1013.00 hPa64.00 %-1.10 °C4.66
17:30:005.30 °C1013.10 hPa64.00 %-0.90 °C4.66
17:15:005.50 °C1013.10 hPa63.00 %-1.00 °C4.66
17:00:005.40 °C1013.20 hPa63.00 %-1.10 °C4.66
16:45:005.90 °C1013.10 hPa61.00 %3.60 km/hNW5.90 °C-1.00 °C4.66
16:30:005.40 °C1013.10 hPa63.00 %6.84 km/hW3.90 °C-1.10 °C4.66
16:15:005.90 °C1013.10 hPa64.00 %5.04 km/hWSW5.10 °C-0.40 °C4.66
16:00:005.70 °C1013.30 hPa66.00 %6.48 km/hWNW4.40 °C-0.10 °C4.66
15:45:005.90 °C1013.40 hPa69.00 %7.20 km/hNNO4.40 °C0.70 °C4.66
15:30:005.90 °C1013.20 hPa67.00 %8.64 km/hNW4.00 °C0.30 °C4.66
15:15:005.90 °C1013.30 hPa67.00 %5.04 km/hNW5.10 °C0.30 °C4.66
15:00:006.00 °C1013.30 hPa71.00 %5.40 km/hW5.10 °C1.20 °C4.66
14:45:006.10 °C1013.30 hPa76.00 %5.76 km/hNNW5.10 °C2.20 °C4.66
14:30:005.40 °C1013.50 hPa77.00 %1.70 °C4.66
14:15:005.80 °C1013.50 hPa77.00 %2.16 km/hNW5.80 °C2.10 °C4.66
14:00:005.00 °C1013.80 hPa79.00 %9.72 km/hWNW2.70 °C1.70 °C4.66
13:45:005.60 °C1013.50 hPa78.00 %2.52 km/hWNW5.60 °C2.10 °C4.66
13:30:005.60 °C1013.70 hPa78.00 %2.10 °C4.66
13:15:005.40 °C1013.90 hPa80.00 %6.84 km/hWSW3.90 °C2.20 °C4.66
13:00:005.10 °C1013.80 hPa83.00 %2.50 °C4.66
12:45:004.40 °C1013.70 hPa88.00 %2.60 °C4.66
12:30:003.40 °C1014.00 hPa87.00 %1.40 °C4.66
12:15:003.20 °C1014.10 hPa87.00 %1.30 °C4.66
12:00:003.30 °C1014.10 hPa87.00 %1.30 °C4.66
11:45:002.80 °C1014.20 hPa89.00 %2.52 km/hNNW2.80 °C1.20 °C4.66
11:30:002.80 °C1014.20 hPa90.00 %1.80 km/hN2.80 °C1.30 °C4.66
11:15:002.70 °C1014.10 hPa91.00 %1.40 °C4.66
11:00:002.30 °C1014.30 hPa92.00 %1.80 km/hWNW2.30 °C1.10 °C4.66
10:45:002.20 °C1014.10 hPa92.00 %1.00 °C4.66
10:30:001.90 °C1014.20 hPa92.00 %0.70 °C4.66
10:15:001.90 °C1014.40 hPa92.00 %5.76 km/hWSW0.30 °C0.70 °C4.15
10:00:001.80 °C1014.30 hPa93.00 %0.80 °C4.15
09:45:001.50 °C1014.30 hPa92.00 %0.30 °C4.15
09:30:001.70 °C1014.30 hPa92.00 %14.76 km/hW-2.30 °C0.50 °C4.15
09:15:001.60 °C1014.10 hPa92.00 %0.40 °C3.63
09:00:001.50 °C1014.10 hPa93.00 %4.68 km/hWNW1.50 °C0.50 °C3.63
08:45:001.30 °C1014.10 hPa92.00 %0.36 km/hW1.30 °C0.10 °C3.63
08:30:001.40 °C1014.30 hPa92.00 %0.20 °C3.11
08:15:001.40 °C1014.20 hPa92.00 %0.20 °C3.11
08:00:001.40 °C1014.30 hPa92.00 %0.20 °C3.11
07:45:001.50 °C1014.60 hPa92.00 %0.30 °C2.59
07:30:001.80 °C1014.50 hPa92.00 %3.24 km/hNNW1.80 °C0.60 °C2.59
07:15:002.10 °C1014.10 hPa91.00 %6.12 km/hW0.30 °C0.80 °C2.59
07:00:002.90 °C1014.20 hPa90.00 %1.40 °C2.59
06:45:004.30 °C1013.90 hPa92.00 %4.32 km/hN4.30 °C3.10 °C2.59
06:30:004.80 °C1013.40 hPa92.00 %8.64 km/hW2.70 °C3.60 °C2.07
06:15:004.90 °C1013.30 hPa92.00 %11.16 km/hNNW2.30 °C3.70 °C2.07
06:00:004.90 °C1013.40 hPa92.00 %1.80 km/hNW4.90 °C3.70 °C2.07
05:45:004.90 °C1013.40 hPa92.00 %3.70 °C1.56
05:30:004.80 °C1013.50 hPa92.00 %3.60 °C1.56
05:15:004.90 °C1013.50 hPa91.00 %2.88 km/hNW4.90 °C3.60 °C1.04
05:00:004.90 °C1013.50 hPa90.00 %3.40 °C1.04
04:45:004.90 °C1013.90 hPa89.00 %6.48 km/hWNW3.50 °C3.20 °C0.52
04:30:005.10 °C1014.00 hPa88.00 %2.52 km/hW5.10 °C3.30 °C0.52
04:15:005.30 °C1014.10 hPa86.00 %3.20 °C 
04:00:005.60 °C1014.20 hPa85.00 %7.20 km/hW4.10 °C3.30 °C 
03:45:006.10 °C1014.30 hPa82.00 %10.08 km/hWNW4.00 °C3.30 °C 
03:30:006.30 °C1014.30 hPa81.00 %6.48 km/hWNW5.10 °C3.30 °C 
03:15:006.30 °C1014.50 hPa79.00 %2.90 °C 
03:00:006.40 °C1014.50 hPa78.00 %2.90 °C 
02:45:006.50 °C1014.60 hPa78.00 %12.60 km/hSW4.00 °C2.90 °C 
02:30:006.60 °C1014.90 hPa78.00 %3.00 °C 
02:15:006.70 °C1015.00 hPa77.00 %15.48 km/hWSW3.80 °C3.00 °C 
02:00:006.80 °C1015.10 hPa77.00 %3.10 °C 
01:45:006.80 °C1015.30 hPa77.00 %9.00 km/hW5.00 °C3.10 °C 
01:30:006.80 °C1015.50 hPa77.00 %3.10 °C 
01:15:006.90 °C1015.60 hPa77.00 %3.20 °C 
01:00:006.90 °C1015.80 hPa76.00 %3.00 °C 
00:45:006.90 °C1016.00 hPa76.00 %3.00 °C 
00:30:006.90 °C1016.20 hPa76.00 %3.00 °C 
00:15:006.90 °C1016.00 hPa76.00 %4.32 km/hWNW6.90 °C3.00 °C 
00:00:006.90 °C1016.20 hPa75.00 %2.80 °C 

Permanenter Link zu dieser Seite: Wetter im Erzgebirge am 22.04.2017
Performance-Info: Die Erstellung der Seite / Statistik(en) / Tabelle(n) erforderte 5 Datenbankserver-Abfrage(n) und dauerte 71 Millisekunden. (Dieser Messwert ist von der Gesamt-Auslastung des Servers abhängig.)
Erzgebirge - Wetter | Erzgebirge - Wetter (Mobilgeräte) | Komplette Klimadatenbank